createdAt,value
2018-01-26T00:00:44.310Z,100315.82
2018-01-26T00:03:11.869Z,100319.62
2018-01-26T00:05:39.491Z,100320.03
2018-01-26T00:08:07.070Z,100319.19
2018-01-26T00:10:34.638Z,100317.92
2018-01-26T00:13:02.378Z,100325.92
2018-01-26T00:15:29.946Z,100314.54
2018-01-26T00:17:57.498Z,100310.36
2018-01-26T00:20:25.115Z,100315.83
2018-01-26T00:22:52.661Z,100311.59
2018-01-26T00:25:20.213Z,100305.66
2018-01-26T00:27:47.886Z,100306.55
2018-01-26T00:30:15.438Z,100311.58
2018-01-26T00:32:43.091Z,100304.43
2018-01-26T00:35:10.739Z,100304.84
2018-01-26T00:37:38.457Z,100304.84
2018-01-26T00:40:06.177Z,100306.52
2018-01-26T00:42:33.725Z,100304.02
2018-01-26T00:45:01.410Z,100301.08
2018-01-26T00:47:28.954Z,100300.65
2018-01-26T00:49:56.504Z,100296.84
2018-01-26T00:52:24.070Z,100293.03
2018-01-26T00:54:51.650Z,100291.76
2018-01-26T00:57:19.497Z,100293.86
2018-01-26T00:59:47.042Z,100277.84
2018-01-26T01:02:14.629Z,100284.98
2018-01-26T01:04:42.190Z,100282.06
2018-01-26T01:07:09.737Z,100274.48
2018-01-26T01:09:37.365Z,100273.63
2018-01-26T01:12:04.913Z,100269.81
2018-01-26T01:14:32.722Z,100267.29
2018-01-26T01:17:00.274Z,100264.75
2018-01-26T01:19:28.058Z,100268.53
2018-01-26T01:21:55.783Z,100269.37
2018-01-26T01:24:23.398Z,100266.86
2018-01-26T01:26:50.946Z,100273.19
2018-01-26T01:29:18.494Z,100274.87
2018-01-26T01:31:46.045Z,100273.59
2018-01-26T01:34:13.643Z,100276.12
2018-01-26T01:36:41.194Z,100276.50
2018-01-26T01:39:09.003Z,100271.86
2018-01-26T01:41:36.615Z,100261.32
2018-01-26T01:44:04.240Z,100261.73
2018-01-26T01:46:31.830Z,100260.91
2018-01-26T01:49:10.990Z,100259.16
2018-01-26T01:51:38.589Z,100262.55
2018-01-26T01:54:06.134Z,100258.75
2018-01-26T01:56:33.685Z,100248.22
2018-01-26T01:59:01.240Z,100249.48
2018-01-26T02:01:29.001Z,100250.73
2018-01-26T02:03:56.617Z,100255.38
2018-01-26T02:06:24.239Z,100258.30
2018-01-26T02:08:51.956Z,100254.09
2018-01-26T02:11:19.517Z,100243.53
2018-01-26T02:13:47.291Z,100247.77
2018-01-26T02:16:14.910Z,100241.44
2018-01-26T02:18:42.454Z,100240.99
2018-01-26T02:21:10.245Z,100242.27
2018-01-26T02:23:37.797Z,100238.91
2018-01-26T02:26:05.354Z,100239.31
2018-01-26T02:28:32.950Z,100238.05
2018-01-26T02:31:00.550Z,100233.44
2018-01-26T02:33:28.334Z,100237.23
2018-01-26T02:35:55.886Z,100239.75
2018-01-26T02:38:23.435Z,100233.41
2018-01-26T02:40:51.293Z,100235.94
2018-01-26T02:43:19.107Z,100234.69
2018-01-26T02:45:46.830Z,100231.73
2018-01-26T02:48:14.388Z,100234.24
2018-01-26T02:50:42.134Z,100226.23
2018-01-26T02:53:09.753Z,100229.57
2018-01-26T02:55:37.497Z,100232.91
2018-01-26T02:58:05.042Z,100234.61
2018-01-26T03:00:32.610Z,100230.39
2018-01-26T03:03:00.251Z,100232.89
2018-01-26T03:05:27.846Z,100243.00
2018-01-26T03:07:55.394Z,100236.70
2018-01-26T03:10:23.204Z,100242.59
2018-01-26T03:12:51.223Z,100243.80
2018-01-26T03:15:18.765Z,100244.21
2018-01-26T03:17:46.426Z,100237.88
2018-01-26T03:20:14.177Z,100240.81
2018-01-26T03:22:41.886Z,100246.23
2018-01-26T03:25:09.443Z,100253.02
2018-01-26T03:27:36.995Z,100250.94
2018-01-26T03:30:04.715Z,100247.55
2018-01-26T03:32:32.266Z,100250.02
2018-01-26T03:34:59.990Z,100248.74
2018-01-26T03:37:27.546Z,100248.33
2018-01-26T03:39:55.097Z,100244.98
2018-01-26T03:42:22.892Z,100237.84
2018-01-26T03:44:50.433Z,100241.20
2018-01-26T03:47:18.054Z,100243.75
2018-01-26T03:49:45.614Z,100249.19
2018-01-26T03:52:13.205Z,100242.88
2018-01-26T03:54:40.972Z,100241.14
2018-01-26T03:57:08.514Z,100246.58
2018-01-26T03:59:36.061Z,100247.03
2018-01-26T04:02:03.618Z,100249.58
2018-01-26T04:04:31.167Z,100247.48
2018-01-26T04:06:58.814Z,100250.39
2018-01-26T04:09:26.361Z,100249.55
2018-01-26T04:11:53.906Z,100258.37
2018-01-26T04:14:21.464Z,100265.52
2018-01-26T04:16:49.014Z,100260.81
2018-01-26T04:19:16.706Z,100262.45
2018-01-26T04:21:44.246Z,100261.60
2018-01-26T04:24:11.794Z,100259.50
2018-01-26T04:26:39.353Z,100261.16
2018-01-26T04:29:06.954Z,100264.11
2018-01-26T04:31:34.793Z,100264.10
2018-01-26T04:34:02.410Z,100271.75
2018-01-26T04:36:30.129Z,100267.98
2018-01-26T04:38:57.952Z,100265.85
2018-01-26T04:41:25.502Z,100272.11
2018-01-26T04:43:53.093Z,100272.48
2018-01-26T04:46:20.812Z,100275.06
2018-01-26T04:48:48.620Z,100271.25
2018-01-26T04:51:16.231Z,100275.48
2018-01-26T04:53:43.862Z,100274.23
2018-01-26T04:56:11.576Z,100279.20
2018-01-26T04:58:39.115Z,100280.45
2018-01-26T05:01:06.679Z,100284.58
2018-01-26T05:03:34.242Z,100288.34
2018-01-26T05:06:01.790Z,100294.20
2018-01-26T05:08:29.671Z,100290.80
2018-01-26T05:10:57.272Z,100292.48
2018-01-26T05:13:24.813Z,100304.64
2018-01-26T05:15:52.518Z,100311.73
2018-01-26T05:18:20.066Z,100301.98
2018-01-26T05:20:47.927Z,100301.13
2018-01-26T05:23:15.574Z,100306.55
2018-01-26T05:25:43.116Z,100306.52
2018-01-26T05:28:10.673Z,100306.49
2018-01-26T05:30:38.326Z,100304.03
2018-01-26T05:33:05.921Z,100313.30
2018-01-26T05:35:33.470Z,100309.16
2018-01-26T05:38:01.021Z,100306.20
2018-01-26T05:40:28.584Z,100307.06
2018-01-26T05:42:56.133Z,100305.03
2018-01-26T05:45:23.721Z,100312.64
2018-01-26T05:47:51.275Z,100321.05
2018-01-26T05:50:18.821Z,100319.80
2018-01-26T05:52:46.386Z,100318.97
2018-01-26T05:55:14.206Z,100317.69
2018-01-26T05:57:41.886Z,100321.98
2018-01-26T06:00:09.449Z,100316.53
2018-01-26T06:02:37.055Z,100306.88
2018-01-26T06:05:04.773Z,100306.52
2018-01-26T06:07:32.327Z,100304.51
2018-01-26T06:09:59.919Z,100300.78
2018-01-26T06:12:27.478Z,100306.77
2018-01-26T06:14:55.031Z,100304.31
2018-01-26T06:17:22.862Z,100308.98
2018-01-26T06:19:50.478Z,100305.69
2018-01-26T06:22:18.198Z,100298.11
2018-01-26T06:24:45.794Z,100299.42
2018-01-26T06:27:13.427Z,100305.34
2018-01-26T06:29:41.017Z,100284.70
2018-01-26T06:32:08.675Z,100294.89
2018-01-26T06:34:36.238Z,100296.14
2018-01-26T06:37:03.786Z,100294.94
2018-01-26T06:39:31.358Z,100300.42
2018-01-26T06:41:58.918Z,100300.42
2018-01-26T06:44:26.664Z,100300.47
2018-01-26T06:46:54.209Z,100291.65
2018-01-26T06:49:21.899Z,100286.20
2018-01-26T06:51:49.590Z,100291.72
2018-01-26T06:54:17.234Z,100292.59
2018-01-26T06:56:44.830Z,100281.23
2018-01-26T06:59:12.374Z,100285.47
2018-01-26T07:01:39.932Z,100297.28
2018-01-26T07:04:07.481Z,100289.25
2018-01-26T07:06:35.036Z,100277.46
2018-01-26T07:09:02.735Z,100284.58
2018-01-26T07:11:30.655Z,100280.94
2018-01-26T07:13:58.266Z,100281.69
2018-01-26T07:16:25.854Z,100280.52
2018-01-26T07:18:53.511Z,100277.93
2018-01-26T07:21:21.075Z,100280.11
2018-01-26T07:23:48.691Z,100275.91
2018-01-26T07:26:16.373Z,100279.27
2018-01-26T07:28:44.107Z,100285.15
2018-01-26T07:31:11.802Z,100277.67
2018-01-26T07:33:39.536Z,100280.06
2018-01-26T07:36:07.234Z,100276.66
2018-01-26T07:38:34.802Z,100266.32
2018-01-26T07:41:02.385Z,100263.23
2018-01-26T07:43:29.947Z,100256.97
2018-01-26T07:45:57.614Z,100256.00
2018-01-26T07:48:25.201Z,100257.17
2018-01-26T07:50:52.760Z,100260.09
2018-01-26T07:53:20.338Z,100252.92
2018-01-26T07:55:47.972Z,100255.78
2018-01-26T07:58:15.593Z,100250.19
2018-01-26T08:00:43.314Z,100261.00
2018-01-26T08:03:10.870Z,100254.19
2018-01-26T08:05:38.454Z,100260.72
2018-01-26T08:08:06.266Z,100250.79
2018-01-26T08:10:33.893Z,100251.28
2018-01-26T08:13:01.450Z,100251.03
2018-01-26T08:15:29.184Z,100249.63
2018-01-26T08:17:56.742Z,100245.83
2018-01-26T08:20:24.291Z,100248.16
2018-01-26T08:22:51.881Z,100248.78
2018-01-26T08:25:19.496Z,100253.44
2018-01-26T08:27:47.033Z,100249.36
2018-01-26T08:30:14.606Z,100257.16
2018-01-26T08:32:42.149Z,100256.26
2018-01-26T08:35:09.962Z,100254.71
2018-01-26T08:37:37.510Z,100257.31
2018-01-26T08:40:05.272Z,100259.78
2018-01-26T08:42:32.810Z,100257.50
2018-01-26T08:45:00.363Z,100264.27
2018-01-26T08:47:28.062Z,100267.13
2018-01-26T08:49:55.605Z,100263.67
2018-01-26T08:52:23.286Z,100263.59
2018-01-26T08:54:50.890Z,100267.09
2018-01-26T08:57:18.481Z,100263.86
2018-01-26T08:59:46.030Z,100261.37
2018-01-26T09:02:13.656Z,100262.55
2018-01-26T09:04:41.219Z,100258.27
2018-01-26T09:07:08.765Z,100256.05
2018-01-26T09:09:36.354Z,100256.84
2018-01-26T09:12:03.915Z,100248.50
2018-01-26T09:14:31.462Z,100252.78
2018-01-26T09:16:59.264Z,100247.23
2018-01-26T09:19:26.816Z,100251.11
2018-01-26T09:21:54.606Z,100238.55
2018-01-26T09:24:22.208Z,100236.96
2018-01-26T09:26:49.754Z,100232.33
2018-01-26T09:29:17.362Z,100234.25
2018-01-26T09:31:45.079Z,100227.57
2018-01-26T09:34:12.746Z,100225.11
2018-01-26T09:36:40.298Z,100217.87
2018-01-26T09:39:08.031Z,100220.11
2018-01-26T09:41:35.586Z,100214.84
2018-01-26T09:44:03.214Z,100219.13
2018-01-26T09:46:30.826Z,100214.69
2018-01-26T09:48:58.366Z,100214.88
2018-01-26T09:51:25.914Z,100200.66
2018-01-26T09:53:53.502Z,100211.47
2018-01-26T09:56:21.043Z,100207.32
2018-01-26T09:58:48.661Z,100202.16
2018-01-26T10:01:16.462Z,100193.67
2018-01-26T10:03:44.006Z,100189.42
2018-01-26T10:06:11.649Z,100176.86
2018-01-26T10:08:39.202Z,100174.81
2018-01-26T10:11:06.956Z,100172.94
2018-01-26T10:13:34.499Z,100174.48
2018-01-26T10:16:02.046Z,100162.89
2018-01-26T10:18:29.793Z,100171.18
2018-01-26T10:20:57.394Z,100168.81
2018-01-26T10:23:25.030Z,100166.34
2018-01-26T10:25:52.574Z,100171.41
2018-01-26T10:28:20.135Z,100168.42
2018-01-26T10:30:47.698Z,100160.27
2018-01-26T10:33:15.323Z,100153.05
2018-01-26T10:35:42.931Z,100147.05
2018-01-26T10:38:10.598Z,100152.14
2018-01-26T10:40:38.287Z,100148.78
2018-01-26T10:43:05.880Z,100148.97
2018-01-26T10:45:33.681Z,100148.67
2018-01-26T10:48:01.286Z,100150.32
2018-01-26T10:50:28.822Z,100148.83
2018-01-26T10:52:56.369Z,100145.39
2018-01-26T10:55:23.985Z,100144.63
2018-01-26T10:57:51.830Z,100140.56
2018-01-26T11:00:19.473Z,100144.92
2018-01-26T11:02:47.040Z,100138.31
2018-01-26T11:05:14.583Z,100144.36
2018-01-26T11:07:42.246Z,100141.60
2018-01-26T11:10:09.787Z,100146.54
2018-01-26T11:12:37.375Z,100144.52
2018-01-26T11:15:04.944Z,100140.22
2018-01-26T11:17:32.639Z,100142.02
2018-01-26T11:20:00.357Z,100137.00
2018-01-26T11:22:27.922Z,100146.48
2018-01-26T11:24:55.530Z,100138.78
2018-01-26T11:27:23.078Z,100142.33
2018-01-26T11:29:50.617Z,100149.42
2018-01-26T11:32:18.299Z,100150.41
2018-01-26T11:34:46.036Z,100142.21
2018-01-26T11:37:13.781Z,100140.72
2018-01-26T11:39:41.406Z,100146.31
2018-01-26T11:42:08.950Z,100149.36
2018-01-26T11:44:36.498Z,100151.45
2018-01-26T11:47:04.093Z,100147.23
2018-01-26T11:49:31.778Z,100146.99
2018-01-26T11:51:59.358Z,100153.71
2018-01-26T11:54:26.922Z,100149.53
2018-01-26T11:56:54.518Z,100146.59
2018-01-26T11:59:22.065Z,100154.16
2018-01-26T12:01:49.768Z,100150.17
2018-01-26T12:04:17.362Z,100151.91
2018-01-26T12:06:44.987Z,100146.65
2018-01-26T12:09:12.615Z,100147.57
2018-01-26T12:11:40.221Z,100149.02
2018-01-26T12:14:07.790Z,100146.16
2018-01-26T12:16:35.374Z,100144.52
2018-01-26T12:19:03.010Z,100145.54
2018-01-26T12:21:30.707Z,100138.92
2018-01-26T12:23:58.247Z,100127.61
2018-01-26T12:26:25.838Z,100145.95
2018-01-26T12:28:53.386Z,100143.56
2018-01-26T12:31:20.930Z,100147.88
2018-01-26T12:33:48.691Z,100146.25
2018-01-26T12:36:16.238Z,100150.91
2018-01-26T12:38:43.782Z,100150.41
2018-01-26T12:41:11.376Z,100147.36
2018-01-26T12:43:38.914Z,100147.37
2018-01-26T12:46:06.455Z,100146.13
2018-01-26T12:48:34.067Z,100149.48
2018-01-26T12:51:01.821Z,100143.78
2018-01-26T12:53:29.390Z,100148.66
2018-01-26T12:55:56.978Z,100146.94
2018-01-26T12:58:24.536Z,100151.61
2018-01-26T13:00:52.086Z,100146.98
2018-01-26T13:03:19.770Z,100151.28
2018-01-26T13:05:47.314Z,100155.77
2018-01-26T13:08:14.879Z,100156.31
2018-01-26T13:10:42.607Z,100152.59
2018-01-26T13:13:10.166Z,100150.78
2018-01-26T13:15:37.701Z,100155.09
2018-01-26T13:18:05.317Z,100158.77
2018-01-26T13:20:32.861Z,100155.17
2018-01-26T13:23:00.517Z,100150.36
2018-01-26T13:25:28.310Z,100157.83
2018-01-26T13:27:55.860Z,100152.00
2018-01-26T13:30:23.405Z,100158.70
2018-01-26T13:32:51.175Z,100153.06
2018-01-26T13:35:18.725Z,100151.12
2018-01-26T13:37:46.403Z,100156.34
2018-01-26T13:40:14.051Z,100145.44
2018-01-26T13:42:41.707Z,100158.41
2018-01-26T13:45:09.306Z,100157.66
2018-01-26T13:47:36.925Z,100149.88
2018-01-26T13:50:04.690Z,100151.06
2018-01-26T13:52:32.244Z,100153.56
2018-01-26T13:54:59.925Z,100149.41
2018-01-26T13:57:27.506Z,100148.84
2018-01-26T13:59:55.082Z,100148.59
2018-01-26T14:02:22.777Z,100145.34
2018-01-26T14:04:50.396Z,100136.55
2018-01-26T14:07:17.942Z,100144.88
2018-01-26T14:09:45.634Z,100143.85
2018-01-26T14:12:13.182Z,100145.87
2018-01-26T14:14:40.758Z,100140.69
2018-01-26T14:17:08.346Z,100145.47
2018-01-26T14:19:35.888Z,100141.75
2018-01-26T14:22:03.440Z,100151.98
2018-01-26T14:24:31.093Z,100152.63
2018-01-26T14:26:58.635Z,100152.47
2018-01-26T14:29:26.242Z,100161.02
2018-01-26T14:31:53.830Z,100154.53
2018-01-26T14:34:21.386Z,100164.34
2018-01-26T14:36:48.934Z,100162.59
2018-01-26T14:39:16.525Z,100169.54
2018-01-26T14:41:44.058Z,100169.77
2018-01-26T14:44:11.605Z,100171.38
2018-01-26T14:46:39.230Z,100157.17
2018-01-26T14:49:06.774Z,100166.97
2018-01-26T14:51:34.533Z,100173.66
2018-01-26T14:54:02.262Z,100172.05
2018-01-26T14:56:29.974Z,100177.80
2018-01-26T14:58:57.591Z,100179.08
2018-01-26T15:01:25.345Z,100178.44
2018-01-26T15:03:53.091Z,100187.53
2018-01-26T15:06:20.643Z,100190.40
2018-01-26T15:08:48.282Z,100191.58
2018-01-26T15:11:15.826Z,100189.55
2018-01-26T15:13:43.440Z,100188.58
2018-01-26T15:16:11.058Z,100204.13
2018-01-26T15:18:38.589Z,100212.76
2018-01-26T15:21:06.348Z,100222.67
2018-01-26T15:23:33.980Z,100223.31
2018-01-26T15:26:01.575Z,100224.61
2018-01-26T15:28:29.166Z,100231.30
2018-01-26T15:30:56.789Z,100234.30
2018-01-26T15:33:24.371Z,100233.69
2018-01-26T15:35:51.934Z,100238.99
2018-01-26T15:38:19.663Z,100249.67
2018-01-26T15:40:47.398Z,100255.59
2018-01-26T15:43:14.934Z,100253.16
2018-01-26T15:45:42.524Z,100255.27
2018-01-26T15:48:10.075Z,100256.72
2018-01-26T15:50:37.796Z,100261.39
2018-01-26T15:53:05.394Z,100264.84
2018-01-26T15:55:32.931Z,100265.52
2018-01-26T15:58:00.716Z,100268.97
2018-01-26T16:00:28.607Z,100275.27
2018-01-26T16:02:56.254Z,100278.77
2018-01-26T16:05:23.826Z,100281.44
2018-01-26T16:07:51.498Z,100284.66
2018-01-26T16:10:19.209Z,100284.81
2018-01-26T16:12:46.749Z,100289.65
2018-01-26T16:15:15.238Z,100296.80
2018-01-26T16:17:42.970Z,100296.55
2018-01-26T16:20:10.513Z,100299.33
2018-01-26T16:22:38.299Z,100300.07
2018-01-26T16:25:05.923Z,100284.00
2018-01-26T16:27:33.735Z,100296.42
2018-01-26T16:30:01.349Z,100300.61
2018-01-26T16:32:28.971Z,100299.86
2018-01-26T16:34:56.509Z,100301.20
2018-01-26T16:37:24.310Z,100309.34
2018-01-26T16:39:51.926Z,100309.67
2018-01-26T16:42:19.493Z,100306.05
2018-01-26T16:44:47.080Z,100302.77
2018-01-26T16:47:14.881Z,100299.56
2018-01-26T16:49:42.437Z,100309.22
2018-01-26T16:52:10.106Z,100308.21
2018-01-26T16:54:37.648Z,100310.66
2018-01-26T16:57:05.217Z,100315.05
2018-01-26T16:59:33.069Z,100312.17
2018-01-26T17:02:00.622Z,100309.13
2018-01-26T17:04:28.170Z,100299.96
2018-01-26T17:06:56.023Z,100316.00
2018-01-26T17:09:23.570Z,100318.95
2018-01-26T17:11:51.115Z,100317.38
2018-01-26T17:14:18.710Z,100320.19
2018-01-26T17:16:46.258Z,100327.45
2018-01-26T17:19:13.914Z,100330.91
2018-01-26T17:21:41.630Z,100329.23
2018-01-26T17:24:09.182Z,100338.56
2018-01-26T17:26:36.802Z,100351.76
2018-01-26T17:29:04.403Z,100337.66
2018-01-26T17:31:31.947Z,100351.84
2018-01-26T17:33:59.482Z,100351.33
2018-01-26T17:36:27.336Z,100353.40
2018-01-26T17:38:56.408Z,100354.45
2018-01-26T17:41:24.086Z,100360.41
2018-01-26T17:43:51.764Z,100362.23
2018-01-26T17:46:19.313Z,100362.99
2018-01-26T17:48:46.910Z,100364.78
2018-01-26T17:51:14.749Z,100364.95
2018-01-26T17:53:42.620Z,100368.41
2018-01-26T17:56:10.289Z,100361.49
2018-01-26T17:58:37.890Z,100370.73
2018-01-26T18:01:05.458Z,100375.47
2018-01-26T18:03:33.014Z,100369.59
2018-01-26T18:06:00.649Z,100373.42
2018-01-26T18:08:28.245Z,100372.22
2018-01-26T18:10:55.970Z,100369.73
2018-01-26T18:13:23.712Z,100365.80
2018-01-26T18:15:51.296Z,100370.02
2018-01-26T18:18:18.846Z,100371.11
2018-01-26T18:20:46.443Z,100368.19
2018-01-26T18:23:13.991Z,100367.71
2018-01-26T18:25:41.801Z,100371.14
2018-01-26T18:28:09.413Z,100374.85
2018-01-26T18:30:37.036Z,100372.89
2018-01-26T18:33:04.690Z,100379.34
2018-01-26T18:35:32.314Z,100379.25
2018-01-26T18:37:59.910Z,100380.14
2018-01-26T18:40:27.500Z,100378.03
2018-01-26T18:42:55.098Z,100381.47
2018-01-26T18:45:22.645Z,100382.73
2018-01-26T18:47:50.206Z,100382.29
2018-01-26T18:50:17.798Z,100381.97
2018-01-26T18:52:45.358Z,100381.98
2018-01-26T18:55:12.910Z,100378.64
2018-01-26T18:57:40.518Z,100377.02
2018-01-26T19:00:08.150Z,100376.19
2018-01-26T19:02:35.706Z,100379.95
2018-01-26T19:05:03.349Z,100380.09
2018-01-26T19:07:31.104Z,100376.33
2018-01-26T19:09:58.823Z,100389.16
2018-01-26T19:12:26.641Z,100383.14
2018-01-26T19:14:54.181Z,100384.33
2018-01-26T19:17:21.742Z,100390.39
2018-01-26T19:19:50.058Z,100384.77
2018-01-26T19:22:17.614Z,100391.12
2018-01-26T19:24:45.169Z,100392.97
2018-01-26T19:27:12.855Z,100393.02
2018-01-26T19:29:40.397Z,100397.30
2018-01-26T19:32:07.953Z,100407.14
2018-01-26T19:34:35.805Z,100403.23
2018-01-26T19:37:03.754Z,100406.33
2018-01-26T19:39:31.300Z,100402.58
2018-01-26T19:41:59.078Z,100410.80
2018-01-26T19:44:26.878Z,100409.89
2018-01-26T19:46:54.438Z,100401.88
2018-01-26T19:49:22.042Z,100408.69
2018-01-26T19:51:49.616Z,100401.38
2018-01-26T19:54:17.349Z,100408.28
2018-01-26T19:56:44.955Z,100414.27
2018-01-26T19:59:12.584Z,100411.72
2018-01-26T20:01:40.150Z,100413.54
2018-01-26T20:04:07.923Z,100416.56
2018-01-26T20:06:53.025Z,100412.70
2018-01-26T20:09:26.702Z,100407.65
2018-01-26T20:12:00.178Z,100411.95
2018-01-26T20:14:27.793Z,100415.33
2018-01-26T20:16:55.350Z,100410.30
2018-01-26T20:19:22.974Z,100411.65
2018-01-26T20:21:50.711Z,100417.97
2018-01-26T20:24:18.282Z,100418.44
2018-01-26T20:26:45.837Z,100420.20
2018-01-26T20:29:13.446Z,100411.81
2018-01-26T20:31:41.031Z,100419.06
2018-01-26T20:34:08.574Z,100420.27
2018-01-26T20:36:36.188Z,100406.80
2018-01-26T20:39:03.878Z,100414.86
2018-01-26T20:41:31.602Z,100422.08
2018-01-26T20:43:59.415Z,100419.48
2018-01-26T20:46:27.129Z,100413.17
2018-01-26T20:48:54.678Z,100420.92
2018-01-26T20:51:22.373Z,100419.30
2018-01-26T20:53:49.946Z,100414.69
2018-01-26T20:56:17.574Z,100417.21
2018-01-26T20:58:45.821Z,100422.75
2018-01-26T21:01:13.430Z,100423.15
2018-01-26T21:03:40.981Z,100421.06
2018-01-26T21:06:08.593Z,100426.16
2018-01-26T21:08:36.392Z,100428.84
2018-01-26T21:11:03.982Z,100433.97
2018-01-26T21:13:31.638Z,100433.56
2018-01-26T21:15:59.202Z,100431.05
2018-01-26T21:18:26.881Z,100436.13
2018-01-26T21:20:54.546Z,100434.83
2018-01-26T21:23:22.187Z,100443.31
2018-01-26T21:25:49.750Z,100439.14
2018-01-26T21:28:17.370Z,100445.97
2018-01-26T21:30:44.935Z,100446.42
2018-01-26T21:33:12.489Z,100448.95
2018-01-26T21:35:40.289Z,100446.39
2018-01-26T21:38:07.832Z,100429.56
2018-01-26T21:40:35.394Z,100454.86
2018-01-26T21:43:03.033Z,100449.00
2018-01-26T21:45:30.667Z,100450.77
2018-01-26T21:47:58.222Z,100449.11
2018-01-26T21:50:25.829Z,100452.51
2018-01-26T21:52:53.392Z,100454.16
2018-01-26T21:55:20.967Z,100457.16
2018-01-26T21:57:48.579Z,100454.63
2018-01-26T22:00:17.038Z,100452.94
2018-01-26T22:02:44.587Z,100459.73
2018-01-26T22:05:16.186Z,100464.81
2018-01-26T22:07:43.797Z,100467.41
2018-01-26T22:10:11.458Z,100467.02
2018-01-26T22:12:39.089Z,100465.72
2018-01-26T22:15:06.643Z,100472.88
2018-01-26T22:17:34.203Z,100469.16
2018-01-26T22:20:01.797Z,100469.12
2018-01-26T22:22:29.552Z,100463.22
2018-01-26T22:24:57.266Z,100462.78
2018-01-26T22:27:25.184Z,100457.25
2018-01-26T22:29:52.742Z,100457.33
2018-01-26T22:32:20.303Z,100464.92
2018-01-26T22:34:47.921Z,100460.70
2018-01-26T22:37:15.519Z,100460.72
2018-01-26T22:39:43.103Z,100461.14
2018-01-26T22:42:10.789Z,100453.55
2018-01-26T22:44:38.342Z,100460.30
2018-01-26T22:47:05.897Z,100450.50
2018-01-26T22:49:33.493Z,100455.17
2018-01-26T22:52:01.172Z,100461.56
2018-01-26T22:54:28.746Z,100455.66
2018-01-26T22:56:56.338Z,100453.14
2018-01-26T22:59:23.904Z,100462.45
2018-01-26T23:01:51.544Z,100459.91
2018-01-26T23:04:19.142Z,100456.96
2018-01-26T23:06:46.774Z,100466.24
2018-01-26T23:09:14.412Z,100461.16
2018-01-26T23:11:42.095Z,100464.57
2018-01-26T23:14:09.642Z,100460.32
2018-01-26T23:16:37.347Z,100462.00
2018-01-26T23:19:04.942Z,100462.88
2018-01-26T23:21:32.485Z,100464.59
2018-01-26T23:24:00.205Z,100470.52
2018-01-26T23:26:27.796Z,100463.35
2018-01-26T23:28:55.495Z,100467.63
2018-01-26T23:31:23.042Z,100467.22
2018-01-26T23:33:50.866Z,100473.58
2018-01-26T23:36:18.422Z,100481.22
2018-01-26T23:38:45.970Z,100477.84
2018-01-26T23:41:13.722Z,100478.26
2018-01-26T23:43:41.537Z,100489.68
2018-01-26T23:46:09.145Z,100487.55
2018-01-26T23:48:36.975Z,100487.14
2018-01-26T23:51:04.617Z,100488.42
2018-01-26T23:53:32.227Z,100491.37
2018-01-26T23:55:59.829Z,100497.33
2018-01-26T23:58:27.378Z,100495.19
